Time;durP1;ratioP1;P1;durP2;ratioP2;P2;SDS_P1;SDS_P2;PMS_P1;PMS_P2;Temp;Humidity;BMP_temperature;BMP_pressure;BME280_temperature;BME280_humidity;BME280_pressure;Samples;Min_cycle;Max_cycle;Signal;HPM_P1;HPM_P2
2022/04/30 00:00:14;;;;;;;7.35;4.90;;;;;;;13.92;64.57;99943.66;5009352;28;20041;-87
2022/04/30 00:02:40;;;;;;;6.60;4.80;;;;;;;13.92;64.93;99942.81;5015869;28;20061;-87
2022/04/30 00:05:06;;;;;;;6.18;4.88;;;;;;;13.81;65.30;99927.72;4999871;28;20108;-87
2022/04/30 00:07:32;;;;;;;10.90;5.13;;;;;;;13.83;65.38;99948.00;5016232;28;20113;-87
2022/04/30 00:09:58;;;;;;;5.57;4.93;;;;;;;13.75;65.38;99929.63;5015860;28;20018;-87
2022/04/30 00:12:25;;;;;;;7.25;5.50;;;;;;;13.69;65.32;99936.94;4999365;28;20026;-87
2022/04/30 00:14:51;;;;;;;7.53;5.47;;;;;;;13.58;66.20;99939.97;4999796;28;20041;-87
2022/04/30 00:17:16;;;;;;;6.45;5.10;;;;;;;13.55;66.18;99941.34;4999502;28;20022;-87
2022/04/30 00:19:42;;;;;;;6.38;5.45;;;;;;;13.59;66.35;99942.38;4998032;28;20026;-87
2022/04/30 00:22:08;;;;;;;5.88;5.07;;;;;;;13.53;66.38;99933.47;4999034;28;20129;-87
2022/04/30 00:24:35;;;;;;;6.65;5.30;;;;;;;13.49;66.70;99934.31;4998360;28;20029;-87
2022/04/30 00:27:02;;;;;;;7.45;4.75;;;;;;;13.52;67.23;99944.56;5014867;28;20045;-87
2022/04/30 00:29:29;;;;;;;5.65;5.05;;;;;;;13.42;67.44;99944.59;4999261;28;20029;-90
2022/04/30 00:31:56;;;;;;;7.55;4.55;;;;;;;13.40;67.42;99946.75;5001613;28;20113;-93
2022/04/30 00:34:23;;;;;;;8.45;4.88;;;;;;;13.31;67.51;99944.59;5001359;28;20025;-94
2022/04/30 00:36:49;;;;;;;5.68;4.88;;;;;;;13.28;67.73;99934.31;4999267;28;20140;-94
2022/04/30 00:39:16;;;;;;;6.20;4.75;;;;;;;13.28;67.85;99941.59;5000048;28;20033;-93
2022/04/30 00:42:10;;;;;;;7.97;4.72;;;;;;;13.21;68.31;99952.69;5000302;28;20022;-93
2022/04/30 00:44:36;;;;;;;5.97;4.50;;;;;;;13.02;68.14;99947.03;4976521;28;20042;-93
2022/04/30 00:47:04;;;;;;;5.10;4.60;;;;;;;12.95;68.91;99954.59;4961674;28;20038;-93
2022/04/30 00:49:31;;;;;;;5.40;4.70;;;;;;;12.88;68.81;99949.44;4961616;28;20061;-92
2022/04/30 00:51:59;;;;;;;7.65;4.60;;;;;;;12.81;69.12;99948.91;4978244;28;20027;-93
2022/04/30 00:54:26;;;;;;;5.97;5.10;;;;;;;12.77;69.22;99964.03;4976717;28;20664;-92
2022/04/30 00:56:57;;;;;;;7.40;4.60;;;;;;;12.75;69.26;99952.69;4975703;28;20053;-94
2022/04/30 00:59:24;;;;;;;5.68;4.57;;;;;;;12.73;69.50;99958.34;4960631;28;20058;-94
2022/04/30 01:01:50;;;;;;;6.45;4.50;;;;;;;12.69;69.71;99956.47;4960988;28;20113;-92
2022/04/30 01:04:21;;;;;;;7.60;4.88;;;;;;;12.57;69.68;99934.28;4977631;28;20046;-93
2022/04/30 01:07:00;;;;;;;4.97;4.47;;;;;;;12.67;69.42;99961.31;4976793;28;20041;-93
2022/04/30 01:09:31;;;;;;;7.82;5.35;;;;;;;12.46;70.23;99955.06;4976354;28;20190;-93
2022/04/30 01:12:08;;;;;;;12.30;5.00;;;;;;;12.47;70.19;99954.81;4977827;28;20053;-94
2022/04/30 01:14:39;;;;;;;6.65;5.32;;;;;;;12.29;70.84;99961.50;4966279;28;20031;-94
2022/04/30 01:17:10;;;;;;;7.43;5.53;;;;;;;12.29;70.77;99955.28;5000432;28;20045;-93
2022/04/30 01:19:39;;;;;;;7.75;5.30;;;;;;;12.28;70.89;99948.25;5000672;28;20073;-93
2022/04/30 01:22:44;;;;;;;6.28;5.35;;;;;;;12.35;70.43;99959.63;5000998;28;20025;-93
2022/04/30 01:25:10;;;;;;;7.47;5.18;;;;;;;12.35;70.18;99956.94;5002219;28;20028;-94
2022/04/30 01:27:37;;;;;;;6.18;5.18;;;;;;;12.33;69.92;99953.69;4985080;28;20034;-93
2022/04/30 01:30:06;;;;;;;5.18;4.60;;;;;;;12.32;69.65;99944.75;5015537;28;20053;-92
2022/04/30 01:38:03;;;;;;;5.47;4.95;;;;;;;12.33;69.75;99950.97;5003220;28;20092;-93
2022/04/30 01:40:29;;;;;;;5.68;4.90;;;;;;;12.28;69.86;99956.34;4999507;28;20053;-93
2022/04/30 01:42:58;;;;;;;6.65;5.00;;;;;;;12.15;70.39;99946.06;5001000;28;20054;-93
2022/04/30 01:45:26;;;;;;;5.65;5.05;;;;;;;12.20;70.29;99957.69;4999325;28;20416;-93
2022/04/30 01:47:52;;;;;;;5.70;5.10;;;;;;;12.01;70.25;99945.72;4999781;28;20041;-93
2022/04/30 01:50:19;;;;;;;7.40;5.63;;;;;;;12.05;70.18;99936.03;4999488;28;20468;-93
2022/04/30 01:52:45;;;;;;;6.90;5.13;;;;;;;12.08;70.35;99946.31;5015769;28;20021;-93
2022/04/30 01:55:10;;;;;;;8.35;5.38;;;;;;;12.07;70.36;99945.47;4983392;28;20499;-91
2022/04/30 01:57:40;;;;;;;7.80;5.70;;;;;;;12.06;70.56;99946.56;5015335;28;20061;-94
2022/04/30 02:00:08;;;;;;;7.55;5.10;;;;;;;12.06;70.53;99940.38;5015520;28;20022;-92
2022/04/30 02:02:36;;;;;;;6.47;5.10;;;;;;;12.18;69.95;99945.53;4999519;28;20098;-93
2022/04/30 02:05:05;;;;;;;7.05;5.20;;;;;;;12.09;70.30;99939.81;4999646;28;20033;-93
2022/04/30 02:07:51;;;;;;;6.40;5.10;;;;;;;12.09;70.25;99950.63;4998326;28;20029;-93
2022/04/30 02:10:19;;;;;;;6.45;5.28;;;;;;;11.97;70.76;99947.34;4998390;28;20408;-92
2022/04/30 02:12:46;;;;;;;8.30;5.40;;;;;;;12.06;70.58;99949.28;4999955;28;20026;-92
2022/04/30 02:15:14;;;;;;;6.10;4.97;;;;;;;11.90;70.96;99936.78;5015007;28;20045;-93
2022/04/30 02:17:40;;;;;;;5.68;5.00;;;;;;;11.94;70.88;99945.97;4999463;28;20028;-93
2022/04/30 02:20:26;;;;;;;8.10;5.55;;;;;;;11.89;70.62;99940.53;5015058;28;20030;-93
2022/04/30 02:22:54;;;;;;;7.05;5.65;;;;;;;11.91;70.98;99941.94;5001235;28;20092;-93
2022/04/30 02:25:21;;;;;;;7.03;5.28;;;;;;;11.82;71.17;99934.56;4998618;28;20407;-92
2022/04/30 02:27:50;;;;;;;6.68;5.65;;;;;;;11.73;71.31;99942.34;5015589;28;20033;-92
2022/04/30 02:30:18;;;;;;;9.13;5.40;;;;;;;11.82;70.94;99938.06;5000119;28;20026;-92
2022/04/30 02:32:46;;;;;;;10.65;5.78;;;;;;;11.80;70.80;99929.41;4998896;28;20021;-92
2022/04/30 02:35:17;;;;;;;8.73;6.32;;;;;;;11.67;71.16;99929.91;5015107;28;20018;-89
2022/04/30 02:37:45;;;;;;;7.57;5.90;;;;;;;11.62;71.21;99929.84;5014360;28;20022;-93
2022/04/30 02:40:36;;;;;;;6.85;5.65;;;;;;;11.77;71.04;99948.84;4999294;28;20022;-93
2022/04/30 02:43:06;;;;;;;8.20;5.53;;;;;;;11.64;71.02;99941.19;4959224;28;20182;-93
2022/04/30 02:45:33;;;;;;;10.20;5.75;;;;;;;11.70;70.92;99943.69;4959527;28;20031;-93
2022/04/30 02:47:59;;;;;;;10.75;6.03;;;;;;;11.64;71.23;99952.81;4974787;28;20046;-93
2022/04/30 02:50:25;;;;;;;7.15;6.10;;;;;;;11.56;71.05;99942.53;4975152;28;20094;-91
2022/04/30 02:52:55;;;;;;;11.60;6.35;;;;;;;11.57;71.20;99954.13;4959367;28;20035;-93
2022/04/30 02:55:21;;;;;;;7.65;5.60;;;;;;;11.68;70.35;99945.84;4975854;28;20052;-92
2022/04/30 03:00:39;;;;;;;8.35;6.32;;;;;;;11.61;70.83;99949.81;4963847;28;20061;-93
2022/04/30 03:03:09;;;;;;;8.20;6.78;;;;;;;11.66;70.55;99958.78;4963503;28;20041;-93
2022/04/30 03:05:57;;;;;;;7.90;6.32;;;;;;;11.77;70.17;99950.72;4962611;28;20105;-91
2022/04/30 03:08:25;;;;;;;7.70;5.95;;;;;;;11.87;69.59;99966.94;4960495;29;20048;-91
2022/04/30 03:10:55;;;;;;;9.38;6.38;;;;;;;11.73;69.72;99940.44;4959270;29;20037;-93
2022/04/30 03:13:21;;;;;;;7.43;6.32;;;;;;;11.74;70.03;99949.34;4944964;29;20039;-92
2022/04/30 03:15:51;;;;;;;9.38;6.25;;;;;;;11.81;69.20;99951.84;4960264;29;20038;-94
2022/04/30 03:23:37;;;;;;;7.30;6.55;;;;;;;11.82;69.66;99954.25;4959868;29;20034;-91
2022/04/30 03:26:05;;;;;;;8.68;6.97;;;;;;;11.85;69.05;99951.03;4942539;29;20035;-93
2022/04/30 03:28:36;;;;;;;10.57;7.68;;;;;;;11.82;69.24;99956.13;4959586;29;20063;-93
2022/04/30 03:31:07;;;;;;;7.97;6.82;;;;;;;11.85;68.72;99967.22;4959488;29;20482;-92
2022/04/30 03:33:34;;;;;;;8.45;7.15;;;;;;;11.76;69.61;99970.69;4959799;29;20102;-93
2022/04/30 03:36:02;;;;;;;8.38;6.95;;;;;;;11.71;69.79;99971.47;4959013;29;20035;-88
2022/04/30 03:38:29;;;;;;;10.38;7.20;;;;;;;11.64;69.93;99973.56;4966483;28;20075;-92
2022/04/30 03:40:56;;;;;;;15.98;7.50;;;;;;;11.64;70.37;99981.66;5017680;28;20444;-92
2022/04/30 03:43:24;;;;;;;8.88;7.20;;;;;;;11.70;70.21;99975.22;5002435;28;20450;-92
2022/04/30 03:45:50;;;;;;;8.45;7.03;;;;;;;11.77;69.61;99978.50;5001994;28;20041;-92
2022/04/30 03:48:16;;;;;;;9.52;7.40;;;;;;;11.69;69.64;99979.00;5001246;28;20046;-93
2022/04/30 03:50:42;;;;;;;11.82;7.55;;;;;;;11.82;69.13;99985.81;5017899;28;20048;-94
2022/04/30 03:53:08;;;;;;;7.82;6.95;;;;;;;11.91;68.89;99995.06;5002359;28;20030;-92
2022/04/30 03:55:35;;;;;;;13.70;7.63;;;;;;;11.93;69.05;99985.66;5001957;28;20045;-93
2022/04/30 03:58:02;;;;;;;13.80;7.63;;;;;;;11.83;69.34;99982.03;5017153;28;20053;-91
2022/04/30 04:00:28;;;;;;;10.00;7.35;;;;;;;11.79;69.31;99981.75;5000808;28;20030;-93
2022/04/30 04:02:55;;;;;;;11.63;7.45;;;;;;;11.92;68.61;99985.91;5018849;28;20056;-92
2022/04/30 04:05:20;;;;;;;7.47;6.60;;;;;;;11.96;68.84;99995.09;5018099;28;20089;-93
2022/04/30 04:07:48;;;;;;;11.20;7.57;;;;;;;11.80;69.61;99993.38;5017402;28;20026;-92
2022/04/30 04:10:14;;;;;;;12.35;7.55;;;;;;;11.71;70.05;99984.94;5017311;28;20054;-92
2022/04/30 04:12:40;;;;;;;20.70;8.30;;;;;;;11.70;69.99;99981.44;5002112;28;20021;-92
2022/04/30 04:17:50;;;;;;;10.43;7.28;;;;;;;11.88;69.29;99996.41;5005319;28;20073;-93
2022/04/30 04:20:18;;;;;;;14.85;7.97;;;;;;;11.83;69.42;99998.22;5017990;28;20096;-91
2022/04/30 04:22:47;;;;;;;9.43;7.35;;;;;;;11.74;69.85;100000.59;5016620;28;20044;-92
2022/04/30 04:27:58;;;;;;;11.05;7.88;;;;;;;11.89;69.52;100003.44;5005192;28;20459;-94
2022/04/30 04:30:25;;;;;;;21.05;8.40;;;;;;;11.79;68.74;99999.84;5018353;28;20030;-94
2022/04/30 04:32:52;;;;;;;15.05;8.25;;;;;;;11.85;68.11;99996.06;5001598;28;20423;-93
2022/04/30 04:35:19;;;;;;;12.48;7.45;;;;;;;11.76;70.62;100000.34;5016090;28;20041;-93
2022/04/30 04:37:49;;;;;;;17.67;8.20;;;;;;;11.76;70.50;100003.06;5002312;28;20022;-93
2022/04/30 04:40:17;;;;;;;9.88;7.95;;;;;;;11.65;69.66;100010.28;5018858;28;20459;-92
2022/04/30 04:42:43;;;;;;;12.15;8.32;;;;;;;11.65;69.85;100000.28;5001454;28;20025;-92
2022/04/30 04:45:10;;;;;;;11.35;8.57;;;;;;;11.62;70.19;100005.38;5016593;28;20094;-90
2022/04/30 04:47:37;;;;;;;13.05;8.70;;;;;;;11.73;69.67;100007.09;5000454;28;20036;-92
2022/04/30 04:50:03;;;;;;;13.50;8.20;;;;;;;11.69;69.65;99997.88;5017798;28;20026;-93
2022/04/30 04:52:29;;;;;;;10.88;8.63;;;;;;;11.70;70.04;99996.81;5017626;28;20025;-93
2022/04/30 04:54:55;;;;;;;11.85;8.18;;;;;;;11.76;70.19;100003.84;5017461;28;20491;-93
2022/04/30 04:57:21;;;;;;;13.15;8.55;;;;;;;11.63;69.99;100007.03;4998957;28;20057;-93
2022/04/30 04:59:48;;;;;;;12.45;9.32;;;;;;;11.67;69.76;100003.53;5000362;28;20060;-86
2022/04/30 05:02:18;;;;;;;15.05;10.45;;;;;;;11.61;69.26;99998.38;5017197;28;20049;-91
2022/04/30 05:04:44;;;;;;;20.88;11.15;;;;;;;11.62;69.98;100008.06;5000303;28;20060;-88
2022/04/30 05:07:10;;;;;;;11.98;9.63;;;;;;;11.72;69.48;100011.69;5014128;28;20115;-87
2022/04/30 05:09:36;;;;;;;11.10;9.40;;;;;;;11.69;68.97;100006.78;4997100;28;20038;-86
2022/04/30 05:12:01;;;;;;;10.70;8.90;;;;;;;11.75;69.33;100012.22;5014126;28;20033;-87
2022/04/30 05:14:33;;;;;;;16.95;11.27;;;;;;;11.72;69.26;100008.97;4998290;28;20022;-87
2022/04/30 05:16:59;;;;;;;19.77;11.40;;;;;;;11.92;68.84;100023.69;4981177;28;20065;-87
2022/04/30 05:19:26;;;;;;;16.35;9.45;;;;;;;12.10;68.41;100030.53;5014726;28;20029;-87
2022/04/30 05:21:51;;;;;;;15.10;9.50;;;;;;;12.07;68.07;100023.75;4998045;28;20025;-86
2022/04/30 05:24:17;;;;;;;12.27;9.10;;;;;;;12.25;67.63;100030.59;5014708;28;20029;-93
2022/04/30 05:26:44;;;;;;;13.02;9.73;;;;;;;12.34;67.14;100033.59;5019869;28;20042;-93
2022/04/30 05:29:10;;;;;;;10.32;9.15;;;;;;;12.36;67.13;100033.34;5001366;28;20469;-94
2022/04/30 05:31:36;;;;;;;15.50;9.70;;;;;;;12.25;67.07;100027.91;5013868;28;20116;-87
2022/04/30 05:34:04;;;;;;;17.27;10.88;;;;;;;12.50;65.46;100029.88;4998578;28;20057;-94
2022/04/30 05:36:31;;;;;;;12.85;10.05;;;;;;;12.53;65.57;100037.47;5017018;28;20029;-93
2022/04/30 05:38:59;;;;;;;49.50;16.35;;;;;;;12.40;65.39;100029.84;4985204;28;20024;-92
2022/04/30 05:41:25;;;;;;;20.75;12.25;;;;;;;12.48;64.71;100042.84;5015675;28;20102;-93
2022/04/30 05:43:52;;;;;;;20.25;13.10;;;;;;;12.26;65.69;100037.63;4984281;28;20030;-93
2022/04/30 05:46:17;;;;;;;16.83;12.98;;;;;;;12.10;66.18;100030.53;5016611;28;20175;-92
2022/04/30 05:48:42;;;;;;;18.20;13.48;;;;;;;12.16;66.21;100032.19;5000991;28;20432;-91
2022/04/30 05:51:08;;;;;;;17.52;13.15;;;;;;;12.18;65.11;100040.00;5017079;28;20441;-93
2022/04/30 05:53:35;;;;;;;15.02;13.35;;;;;;;12.27;64.97;100028.44;4984012;28;20025;-92
2022/04/30 05:56:01;;;;;;;15.23;13.15;;;;;;;12.47;64.55;100035.00;4999237;28;20532;-92
2022/04/30 05:58:27;;;;;;;15.95;14.25;;;;;;;12.56;64.28;100032.63;4999026;28;20064;-92
2022/04/30 06:00:53;;;;;;;16.52;13.10;;;;;;;12.58;63.90;100025.06;4998494;28;20028;-94
2022/04/30 06:03:20;;;;;;;17.17;13.40;;;;;;;12.59;63.71;100038.28;5000471;28;20034;-94
2022/04/30 06:05:47;;;;;;;14.40;12.90;;;;;;;12.59;63.64;100032.88;4998721;28;20030;-86
2022/04/30 06:08:13;;;;;;;12.38;10.20;;;;;;;12.84;61.99;100034.03;5016893;28;20550;-93
2022/04/30 06:10:41;;;;;;;11.27;9.70;;;;;;;12.91;61.72;100032.72;4999663;28;20022;-93
2022/04/30 06:13:06;;;;;;;11.75;10.00;;;;;;;12.90;61.52;100031.06;4998780;28;20038;-93
2022/04/30 06:15:32;;;;;;;11.02;8.88;;;;;;;12.96;60.85;100031.09;4999537;28;20022;-91
2022/04/30 06:17:57;;;;;;;16.50;10.02;;;;;;;12.94;62.49;100034.06;5014769;28;20026;-93
2022/04/30 06:20:24;;;;;;;13.23;9.35;;;;;;;13.00;61.71;100024.88;4998909;28;20018;-93
2022/04/30 06:22:52;;;;;;;12.40;9.25;;;;;;;13.09;61.49;100022.44;4999607;28;20026;-94
2022/04/30 06:25:18;;;;;;;20.02;8.93;;;;;;;13.29;60.46;100032.50;4998638;28;20428;-91
2022/04/30 06:27:43;;;;;;;17.17;9.20;;;;;;;13.26;59.94;100033.84;4983470;28;20025;-93
2022/04/30 06:30:09;;;;;;;10.60;8.20;;;;;;;13.43;59.45;100027.38;5015659;28;20412;-93
2022/04/30 06:32:37;;;;;;;11.63;7.90;;;;;;;13.47;59.49;100012.22;5015517;28;20025;-94
2022/04/30 06:35:08;;;;;;;10.85;7.97;;;;;;;13.69;58.95;100028.94;5017023;28;20052;-93
2022/04/30 06:37:35;;;;;;;6.85;5.35;;;;;;;13.73;56.17;100007.56;4998975;28;20076;-93
2022/04/30 06:40:01;;;;;;;8.55;6.20;;;;;;;13.87;56.96;100013.25;4999794;28;20040;-94
2022/04/30 06:42:28;;;;;;;12.55;6.07;;;;;;;13.75;56.00;100030.56;4999757;28;20423;-93
2022/04/30 06:44:54;;;;;;;7.53;5.25;;;;;;;13.79;54.65;100030.03;5000202;28;20018;-93
2022/04/30 06:47:21;;;;;;;10.50;5.15;;;;;;;13.78;54.95;100026.53;4999070;28;20025;-90
2022/04/30 06:49:46;;;;;;;7.50;4.95;;;;;;;13.80;54.86;100027.06;4999147;28;20048;-94
2022/04/30 06:52:16;;;;;;;8.63;5.28;;;;;;;13.95;54.34;100021.59;5015796;28;20121;-93
2022/04/30 06:57:27;;;;;;;8.65;5.40;;;;;;;14.09;54.86;100021.00;5003840;28;20160;-94
2022/04/30 06:59:55;;;;;;;5.97;5.00;;;;;;;14.19;53.74;100033.72;4983644;28;20018;-93
2022/04/30 07:02:26;;;;;;;7.28;4.68;;;;;;;14.18;53.53;100024.78;4999371;28;20030;-92
2022/04/30 07:05:02;;;;;;;8.00;5.10;;;;;;;14.07;53.74;100017.78;4999404;28;20494;-91
2022/04/30 07:07:28;;;;;;;16.25;5.10;;;;;;;14.35;53.55;100021.75;4997432;28;20121;-92
2022/04/30 07:09:54;;;;;;;5.88;4.82;;;;;;;14.37;53.21;100018.75;5016615;28;20030;-93
2022/04/30 07:12:21;;;;;;;8.00;4.95;;;;;;;14.60;52.41;100031.69;4999226;28;20026;-93
2022/04/30 07:14:48;;;;;;;6.53;4.75;;;;;;;14.51;51.57;100033.34;4999444;28;20057;-92
2022/04/30 07:17:16;;;;;;;7.60;4.65;;;;;;;14.60;51.58;100034.41;4999297;28;20034;-92
2022/04/30 07:19:44;;;;;;;13.73;5.40;;;;;;;14.60;52.07;100033.59;5015132;28;20022;-94
2022/04/30 07:22:11;;;;;;;6.40;4.78;;;;;;;14.69;51.39;100021.06;4999295;28;20484;-94
2022/04/30 07:24:38;;;;;;;10.13;5.07;;;;;;;14.66;51.58;100035.19;4998139;28;20026;-94
2022/04/30 07:27:06;;;;;;;5.15;4.13;;;;;;;14.74;51.38;100031.88;5014462;28;20568;-92
2022/04/30 07:29:33;;;;;;;14.95;5.50;;;;;;;14.83;51.50;100034.81;5015194;28;20028;-93
2022/04/30 07:32:02;;;;;;;6.78;4.88;;;;;;;14.92;51.43;100030.41;4999323;28;20113;-93
2022/04/30 07:34:27;;;;;;;5.95;4.20;;;;;;;14.75;51.00;100025.38;5015457;28;20088;-93
2022/04/30 07:36:56;;;;;;;6.32;4.97;;;;;;;14.88;51.20;100027.47;5014176;28;20029;-94
2022/04/30 07:39:22;;;;;;;7.05;4.88;;;;;;;14.95;50.56;100027.16;4998002;28;20029;-94
2022/04/30 07:41:49;;;;;;;9.98;4.60;;;;;;;15.00;50.74;100029.81;5000557;28;20026;-93
2022/04/30 07:44:16;;;;;;;10.32;4.30;;;;;;;15.06;50.42;100028.69;4982475;28;20041;-93
2022/04/30 07:46:42;;;;;;;6.70;4.47;;;;;;;15.07;50.47;100019.47;5016651;28;20065;-93
2022/04/30 07:49:08;;;;;;;5.00;4.18;;;;;;;15.30;50.35;100019.84;5001481;28;20030;-92
2022/04/30 07:51:38;;;;;;;5.53;4.25;;;;;;;15.46;49.55;100015.91;5018517;28;20404;-93
2022/04/30 07:54:05;;;;;;;5.60;4.25;;;;;;;15.61;49.69;100011.44;5002213;28;20022;-93
2022/04/30 07:56:33;;;;;;;8.85;4.60;;;;;;;15.69;50.23;100016.25;5002256;28;20539;-93
2022/04/30 07:58:59;;;;;;;5.85;4.18;;;;;;;15.84;48.90;100002.53;5001660;28;20031;-93
2022/04/30 08:01:25;;;;;;;4.20;3.80;;;;;;;15.94;49.20;100002.44;5001488;28;20081;-93
2022/04/30 08:03:51;;;;;;;8.20;4.05;;;;;;;16.04;49.25;100015.09;5018097;28;20021;-93
2022/04/30 08:06:16;;;;;;;5.40;3.97;;;;;;;16.09;48.20;100012.31;5002320;28;20087;-94
2022/04/30 08:08:42;;;;;;;5.00;4.07;;;;;;;16.29;48.11;100003.13;5000498;28;20472;-91
2022/04/30 08:11:08;;;;;;;5.00;3.83;;;;;;;16.31;46.24;100013.66;5001636;28;20033;-93
2022/04/30 08:13:36;;;;;;;6.40;3.30;;;;;;;16.10;46.90;100008.50;5019049;28;20041;-94
2022/04/30 08:16:02;;;;;;;6.35;4.10;;;;;;;16.24;47.46;99999.63;5001496;28;20041;-93
2022/04/30 08:18:28;;;;;;;4.95;3.83;;;;;;;16.50;46.62;100011.00;5017772;28;20030;-94
2022/04/30 08:20:54;;;;;;;4.82;3.00;;;;;;;16.59;46.45;100009.25;5017802;28;20034;-91
2022/04/30 08:23:22;;;;;;;6.70;3.72;;;;;;;16.38;46.86;99999.75;5019042;28;20400;-92
2022/04/30 08:25:48;;;;;;;7.90;3.88;;;;;;;16.43;46.87;100005.91;5019422;28;20030;-92
2022/04/30 08:28:13;;;;;;;5.82;3.42;;;;;;;16.55;46.40;99994.63;5003781;28;20018;-94
2022/04/30 08:30:41;;;;;;;5.10;3.33;;;;;;;16.47;45.84;99995.25;5001913;28;20018;-91
2022/04/30 08:33:08;;;;;;;4.35;2.75;;;;;;;16.70;46.09;99996.31;5017000;28;20100;-93
2022/04/30 08:35:34;;;;;;;5.93;3.00;;;;;;;17.06;45.31;100001.25;5017497;28;20069;-90
2022/04/30 08:37:59;;;;;;;4.65;3.15;;;;;;;17.29;45.43;99994.88;5000201;28;20099;-94
2022/04/30 08:40:26;;;;;;;8.55;3.60;;;;;;;17.21;44.70;99994.75;5002149;28;20028;-93
2022/04/30 08:42:52;;;;;;;5.05;3.03;;;;;;;17.22;44.86;100004.53;5000048;28;20088;-93
2022/04/30 08:45:19;;;;;;;6.28;2.97;;;;;;;17.07;45.05;99994.72;5001144;28;20026;-93
2022/04/30 08:47:50;;;;;;;5.28;3.20;;;;;;;17.07;45.50;99997.44;5024491;28;20030;-94
2022/04/30 08:50:15;;;;;;;7.80;3.17;;;;;;;16.72;45.80;99997.63;5000310;28;20021;-88
2022/04/30 08:52:42;;;;;;;11.80;3.72;;;;;;;16.86;45.41;100002.38;5015144;28;20041;-89
2022/04/30 08:55:08;;;;;;;9.93;4.43;;;;;;;16.85;45.36;99987.16;4999313;28;20502;-88
2022/04/30 08:57:34;;;;;;;4.95;3.40;;;;;;;17.03;44.95;99996.41;4996628;28;20050;-89
2022/04/30 08:59:59;;;;;;;10.88;3.17;;;;;;;16.96;43.64;99988.63;4997996;28;20033;-88
2022/04/30 09:02:25;;;;;;;6.25;3.20;;;;;;;17.16;44.34;99990.19;5014784;28;20033;-88
2022/04/30 09:04:51;;;;;;;6.18;2.85;;;;;;;17.25;44.06;100003.94;5015346;28;20164;-90
2022/04/30 09:07:24;;;;;;;3.92;2.90;;;;;;;17.17;44.77;100000.78;5015296;28;20495;-87
2022/04/30 09:09:57;;;;;;;5.43;2.90;;;;;;;16.95;44.99;100001.41;5014110;28;20061;-88
2022/04/30 09:12:24;;;;;;;4.05;2.83;;;;;;;16.89;45.25;99971.84;5000847;28;20072;-91
2022/04/30 09:14:53;;;;;;;8.60;3.00;;;;;;;16.99;44.81;99976.34;5016976;28;20029;-94
2022/04/30 09:17:22;;;;;;;4.47;2.70;;;;;;;16.95;44.46;99948.91;5001364;28;20029;-94
2022/04/30 09:19:59;;;;;;;3.95;2.65;;;;;;;17.20;43.94;99957.75;4983775;28;20056;-94
2022/04/30 09:22:33;;;;;;;4.32;2.90;;;;;;;17.41;44.47;99969.09;4998985;28;20042;-93
2022/04/30 09:25:00;;;;;;;4.07;2.80;;;;;;;17.43;43.84;99959.53;5016910;28;20033;-94
2022/04/30 09:27:38;;;;;;;4.53;2.60;;;;;;;17.68;43.15;99949.25;5008287;28;20444;-91
2022/04/30 09:30:19;;;;;;;9.32;4.45;;;;;;;17.70;42.18;99971.56;5010150;28;20030;-93
2022/04/30 09:33:05;;;;;;;4.60;2.30;;;;;;;17.68;41.99;99962.88;5002928;28;20033;-94
2022/04/30 09:38:18;;;;;;;10.23;2.47;;;;;;;17.68;42.46;99960.16;5017607;28;20041;-93
2022/04/30 09:41:11;;;;;;;8.68;2.92;;;;;;;17.76;43.21;99963.00;5016267;28;20029;-92
2022/04/30 09:43:37;;;;;;;3.40;1.95;;;;;;;17.69;42.17;99962.59;4996380;28;20558;-93
2022/04/30 09:46:06;;;;;;;4.60;2.70;;;;;;;17.73;42.41;99958.16;5000945;28;20046;-93
2022/04/30 09:54:02;;;;;;;8.70;2.30;;;;;;;17.81;41.70;99945.75;5017921;28;20561;-93
2022/04/30 09:56:38;;;;;;;4.28;2.05;;;;;;;17.70;41.59;99944.31;5001551;28;20068;-93
2022/04/30 09:59:12;;;;;;;4.38;2.60;;;;;;;17.83;42.06;99943.56;5001471;28;20196;-93
2022/04/30 10:01:40;;;;;;;4.82;2.30;;;;;;;18.19;41.09;99942.81;5017331;28;20101;-93
2022/04/30 10:04:11;;;;;;;6.85;2.80;;;;;;;18.21;41.11;99937.88;4984617;28;20036;-94
2022/04/30 10:06:42;;;;;;;5.07;2.30;;;;;;;18.27;40.15;99939.38;4985017;28;20041;-94
2022/04/30 10:09:09;;;;;;;3.97;2.20;;;;;;;18.49;39.50;99938.63;4999400;28;20033;-93
2022/04/30 10:11:56;;;;;;;3.40;2.38;;;;;;;18.57;40.04;99926.16;4968834;28;20105;-94
2022/04/30 10:14:52;;;;;;;2.70;2.10;;;;;;;18.55;41.08;99942.84;4986357;28;20022;-94
2022/04/30 10:17:22;;;;;;;3.05;2.20;;;;;;;18.49;40.83;99929.63;4984580;28;20025;-94
2022/04/30 10:20:00;;;;;;;3.95;2.38;;;;;;;18.49;41.35;99941.34;4998978;28;20030;-94
2022/04/30 10:22:26;;;;;;;3.90;2.30;;;;;;;18.36;40.87;99923.09;5000021;28;20048;-94
2022/04/30 10:24:57;;;;;;;3.70;2.45;;;;;;;18.44;41.13;99932.47;5000015;28;20025;-94
2022/04/30 10:27:47;;;;;;;4.60;2.08;;;;;;;18.37;41.09;99920.06;4982649;28;20042;-94
2022/04/30 10:30:24;;;;;;;3.45;2.08;;;;;;;18.45;40.16;99918.53;4980424;28;20054;-93
2022/04/30 10:32:59;;;;;;;5.97;2.13;;;;;;;18.44;39.86;99907.94;4994581;28;20042;-94
2022/04/30 10:35:42;;;;;;;5.65;2.58;;;;;;;18.28;40.59;99916.47;4992423;28;20046;-92
2022/04/30 10:38:19;;;;;;;17.70;5.20;;;;;;;18.10;40.94;99923.66;4980156;28;20058;-94
2022/04/30 10:40:47;;;;;;;2.40;2.00;;;;;;;18.25;39.81;99932.63;4946413;28;20022;-93
2022/04/30 10:43:31;;;;;;;2.92;2.20;;;;;;;18.22;39.22;99919.59;4947571;28;20120;-94
2022/04/30 10:45:57;;;;;;;3.33;1.98;;;;;;;18.11;39.22;99919.00;4970513;28;20095;-93
2022/04/30 10:48:23;;;;;;;3.10;1.95;;;;;;;18.12;39.28;99907.00;4963030;28;20350;-93
2022/04/30 10:50:51;;;;;;;3.42;2.33;;;;;;;18.25;39.18;99900.72;4963874;28;20034;-92
2022/04/30 10:53:19;;;;;;;5.35;2.15;;;;;;;18.26;39.50;99913.25;4946891;28;20042;-93
2022/04/30 10:55:46;;;;;;;5.20;2.60;;;;;;;18.38;39.67;99908.03;4978092;28;20033;-94
2022/04/30 10:58:15;;;;;;;6.07;2.30;;;;;;;18.43;39.33;99907.13;4960234;28;20038;-93
2022/04/30 11:00:40;;;;;;;8.88;2.78;;;;;;;18.48;39.90;99912.47;4943525;28;20031;-92
2022/04/30 11:03:10;;;;;;;3.35;2.17;;;;;;;18.40;38.90;99894.09;4943381;28;20035;-93
2022/04/30 11:05:35;;;;;;;8.98;2.85;;;;;;;18.56;39.36;99905.47;4957294;28;20034;-94
2022/04/30 11:08:03;;;;;;;7.95;2.40;;;;;;;18.49;39.40;99894.19;4993371;28;20034;-93
2022/04/30 11:10:30;;;;;;;2.78;2.20;;;;;;;18.49;38.80;99889.56;4960107;28;20266;-93
2022/04/30 11:13:05;;;;;;;7.13;2.38;;;;;;;18.52;38.46;99909.94;4980450;28;20025;-92
2022/04/30 11:15:31;;;;;;;2.55;1.83;;;;;;;18.42;38.89;99900.06;4978911;28;20031;-94
2022/04/30 11:17:58;;;;;;;9.05;2.80;;;;;;;18.45;38.67;99890.44;4990269;28;20145;-89
2022/04/30 11:20:25;;;;;;;6.78;2.40;;;;;;;18.55;38.48;99899.22;4991170;28;20076;-88
2022/04/30 11:22:58;;;;;;;5.15;2.10;;;;;;;18.50;38.01;99898.53;4980759;28;20031;-89
2022/04/30 11:25:39;;;;;;;3.70;2.00;;;;;;;18.22;38.74;99898.63;4995447;28;20029;-94
2022/04/30 11:28:10;;;;;;;3.67;1.85;;;;;;;18.46;38.01;99914.69;4980140;28;20620;-94
2022/04/30 11:30:41;;;;;;;2.83;2.20;;;;;;;18.56;38.17;99897.28;4980472;28;20532;-93
2022/04/30 11:33:08;;;;;;;5.13;2.17;;;;;;;18.58;37.60;99890.41;4997126;28;20023;-94
2022/04/30 11:35:36;;;;;;;3.38;1.80;;;;;;;18.80;37.25;99896.22;4980169;28;20054;-93
2022/04/30 11:38:05;;;;;;;4.70;1.85;;;;;;;18.98;37.58;99889.75;4982531;28;20023;-91
2022/04/30 11:40:32;;;;;;;8.13;2.20;;;;;;;19.02;37.12;99893.47;5000103;28;20026;-92
2022/04/30 11:43:00;;;;;;;4.32;1.77;;;;;;;18.85;37.06;99877.00;4998192;28;20126;-93
2022/04/30 11:45:35;;;;;;;4.05;1.98;;;;;;;18.75;37.03;99886.19;4979827;28;20408;-93
2022/04/30 11:48:03;;;;;;;3.10;1.98;;;;;;;18.45;37.13;99879.53;4997444;28;20071;-91
2022/04/30 11:50:30;;;;;;;4.45;1.95;;;;;;;18.58;36.99;99889.63;4983444;28;20086;-92
2022/04/30 11:52:56;;;;;;;5.22;2.17;;;;;;;18.66;36.94;99891.59;4991748;28;20096;-89
2022/04/30 11:55:25;;;;;;;4.20;1.85;;;;;;;18.82;36.32;99888.50;4995079;28;20035;-88
2022/04/30 11:57:51;;;;;;;3.85;2.60;;;;;;;18.87;35.73;99883.75;4997829;28;20061;-93
2022/04/30 12:00:18;;;;;;;7.93;2.70;;;;;;;18.76;36.70;99869.53;4995700;28;20041;-92
2022/04/30 12:02:48;;;;;;;4.55;2.70;;;;;;;18.77;37.00;99859.41;4999100;28;20489;-92